sensor_id;sensor_type;location;lat;lon;timestamp;pressure;altitude;pressure_sealevel;temperature;humidity
59043;BME280;44826;51.596;5.624;2023-06-22T00:00:49;101780.13;;;19.34;69.87
59043;BME280;44826;51.596;5.624;2023-06-22T00:03:15;101773.97;;;19.34;70.13
59043;BME280;44826;51.596;5.624;2023-06-22T00:05:40;101781.28;;;19.29;70.72
59043;BME280;44826;51.596;5.624;2023-06-22T00:08:05;101771.69;;;19.26;71.24
59043;BME280;44826;51.596;5.624;2023-06-22T00:10:31;101757.03;;;19.20;70.83
59043;BME280;44826;51.596;5.624;2023-06-22T00:12:56;101759.88;;;19.16;70.69
59043;BME280;44826;51.596;5.624;2023-06-22T00:15:22;101768.94;;;19.10;70.60
59043;BME280;44826;51.596;5.624;2023-06-22T00:17:47;101773.34;;;19.09;71.26
59043;BME280;44826;51.596;5.624;2023-06-22T00:20:12;101771.72;;;19.07;71.38
59043;BME280;44826;51.596;5.624;2023-06-22T00:22:39;101766.44;;;19.07;71.92
59043;BME280;44826;51.596;5.624;2023-06-22T00:25:06;101771.88;;;19.04;70.58
59043;BME280;44826;51.596;5.624;2023-06-22T00:27:32;101777.28;;;19.01;71.72
59043;BME280;44826;51.596;5.624;2023-06-22T00:29:57;101784.41;;;18.99;70.62
59043;BME280;44826;51.596;5.624;2023-06-22T00:32:22;101786.38;;;18.93;72.44
59043;BME280;44826;51.596;5.624;2023-06-22T00:34:47;101776.94;;;18.88;71.96
59043;BME280;44826;51.596;5.624;2023-06-22T00:37:13;101784.94;;;18.86;71.73
59043;BME280;44826;51.596;5.624;2023-06-22T00:39:38;101784.16;;;18.84;72.01
59043;BME280;44826;51.596;5.624;2023-06-22T00:42:04;101781.66;;;18.81;71.83
59043;BME280;44826;51.596;5.624;2023-06-22T00:44:29;101773.91;;;18.78;72.12
59043;BME280;44826;51.596;5.624;2023-06-22T00:46:54;101770.41;;;18.77;71.58
59043;BME280;44826;51.596;5.624;2023-06-22T00:49:20;101765.34;;;18.73;72.64
59043;BME280;44826;51.596;5.624;2023-06-22T00:51:45;101767.09;;;18.72;72.06
59043;BME280;44826;51.596;5.624;2023-06-22T00:54:13;101769.03;;;18.69;71.93
59043;BME280;44826;51.596;5.624;2023-06-22T00:56:40;101773.66;;;18.63;72.16
59043;BME280;44826;51.596;5.624;2023-06-22T00:59:06;101766.81;;;18.59;72.00
59043;BME280;44826;51.596;5.624;2023-06-22T01:01:31;101758.25;;;18.54;72.08
59043;BME280;44826;51.596;5.624;2023-06-22T01:03:57;101756.81;;;18.47;72.79
59043;BME280;44826;51.596;5.624;2023-06-22T01:06:29;101761.50;;;18.40;73.49
59043;BME280;44826;51.596;5.624;2023-06-22T01:09:11;101763.41;;;18.37;73.50
59043;BME280;44826;51.596;5.624;2023-06-22T01:11:45;101758.16;;;18.37;73.16
59043;BME280;44826;51.596;5.624;2023-06-22T01:14:43;101749.53;;;18.33;71.99
59043;BME280;44826;51.596;5.624;2023-06-22T01:17:11;101743.69;;;18.26;74.12
59043;BME280;44826;51.596;5.624;2023-06-22T01:19:52;101756.19;;;18.21;73.42
59043;BME280;44826;51.596;5.624;2023-06-22T01:22:24;101751.13;;;18.16;75.20
59043;BME280;44826;51.596;5.624;2023-06-22T01:25:12;101760.66;;;18.19;74.06
59043;BME280;44826;51.596;5.624;2023-06-22T01:30:32;101756.56;;;18.12;75.66
59043;BME280;44826;51.596;5.624;2023-06-22T01:33:01;101755.00;;;18.08;75.64
59043;BME280;44826;51.596;5.624;2023-06-22T01:35:28;101763.84;;;18.07;75.81
59043;BME280;44826;51.596;5.624;2023-06-22T01:37:54;101756.91;;;18.04;76.26
59043;BME280;44826;51.596;5.624;2023-06-22T01:40:21;101767.50;;;18.02;76.45
59043;BME280;44826;51.596;5.624;2023-06-22T01:42:47;101763.16;;;18.01;76.63
59043;BME280;44826;51.596;5.624;2023-06-22T01:45:13;101763.16;;;18.01;76.57
59043;BME280;44826;51.596;5.624;2023-06-22T01:47:40;101758.69;;;18.03;76.70
59043;BME280;44826;51.596;5.624;2023-06-22T01:50:06;101750.00;;;18.01;76.69
59043;BME280;44826;51.596;5.624;2023-06-22T01:52:31;101744.03;;;17.98;76.75
59043;BME280;44826;51.596;5.624;2023-06-22T01:54:59;101737.22;;;17.92;77.10
59043;BME280;44826;51.596;5.624;2023-06-22T01:57:24;101740.00;;;17.87;77.82
59043;BME280;44826;51.596;5.624;2023-06-22T02:00:03;101744.44;;;17.87;77.78
59043;BME280;44826;51.596;5.624;2023-06-22T02:02:43;101748.72;;;17.89;77.05
59043;BME280;44826;51.596;5.624;2023-06-22T02:05:11;101742.53;;;17.90;78.00
59043;BME280;44826;51.596;5.624;2023-06-22T02:07:51;101738.97;;;17.92;77.89
59043;BME280;44826;51.596;5.624;2023-06-22T02:10:19;101737.25;;;17.90;78.40
59043;BME280;44826;51.596;5.624;2023-06-22T02:12:45;101738.13;;;17.91;78.48
59043;BME280;44826;51.596;5.624;2023-06-22T02:15:12;101746.06;;;17.89;78.93
59043;BME280;44826;51.596;5.624;2023-06-22T02:17:39;101741.81;;;17.87;79.14
59043;BME280;44826;51.596;5.624;2023-06-22T02:20:15;101742.66;;;17.87;79.33
59043;BME280;44826;51.596;5.624;2023-06-22T02:22:41;101745.22;;;17.89;79.42
59043;BME280;44826;51.596;5.624;2023-06-22T02:25:06;101736.53;;;17.87;79.22
59043;BME280;44826;51.596;5.624;2023-06-22T02:27:32;101735.63;;;17.88;79.64
59043;BME280;44826;51.596;5.624;2023-06-22T02:29:57;101736.41;;;17.90;79.68
59043;BME280;44826;51.596;5.624;2023-06-22T02:32:22;101739.97;;;17.89;79.77
59043;BME280;44826;51.596;5.624;2023-06-22T02:34:48;101734.63;;;17.90;80.23
59043;BME280;44826;51.596;5.624;2023-06-22T02:37:14;101736.41;;;17.90;80.10
59043;BME280;44826;51.596;5.624;2023-06-22T02:39:42;101733.00;;;17.88;79.68
59043;BME280;44826;51.596;5.624;2023-06-22T02:42:07;101723.44;;;17.85;80.30
59043;BME280;44826;51.596;5.624;2023-06-22T02:44:32;101720.88;;;17.84;79.94
59043;BME280;44826;51.596;5.624;2023-06-22T02:46:58;101707.78;;;17.82;80.16
59043;BME280;44826;51.596;5.624;2023-06-22T02:49:23;101712.31;;;17.79;80.76
59043;BME280;44826;51.596;5.624;2023-06-22T02:51:49;101715.00;;;17.77;80.49
59043;BME280;44826;51.596;5.624;2023-06-22T02:54:14;101715.84;;;17.78;80.20
59043;BME280;44826;51.596;5.624;2023-06-22T02:56:39;101712.47;;;17.75;80.28
59043;BME280;44826;51.596;5.624;2023-06-22T02:59:05;101708.97;;;17.75;79.94
59043;BME280;44826;51.596;5.624;2023-06-22T03:01:31;101700.22;;;17.74;80.42
59043;BME280;44826;51.596;5.624;2023-06-22T03:04:03;101708.25;;;17.71;80.54
59043;BME280;44826;51.596;5.624;2023-06-22T03:06:28;101707.44;;;17.69;80.58
59043;BME280;44826;51.596;5.624;2023-06-22T03:09:00;101704.84;;;17.68;80.52
59043;BME280;44826;51.596;5.624;2023-06-22T03:11:26;101704.00;;;17.67;80.96
59043;BME280;44826;51.596;5.624;2023-06-22T03:13:51;101707.50;;;17.68;80.94
59043;BME280;44826;51.596;5.624;2023-06-22T03:16:18;101689.94;;;17.68;80.70
59043;BME280;44826;51.596;5.624;2023-06-22T03:18:44;101690.06;;;17.65;80.80
59043;BME280;44826;51.596;5.624;2023-06-22T03:21:09;101691.91;;;17.63;80.76
59043;BME280;44826;51.596;5.624;2023-06-22T03:23:34;101697.16;;;17.63;80.56
59043;BME280;44826;51.596;5.624;2023-06-22T03:25:59;101699.00;;;17.61;81.20
59043;BME280;44826;51.596;5.624;2023-06-22T03:28:25;101690.34;;;17.59;80.67
59043;BME280;44826;51.596;5.624;2023-06-22T03:30:50;101686.13;;;17.55;80.86
59043;BME280;44826;51.596;5.624;2023-06-22T03:33:15;101687.84;;;17.56;81.30
59043;BME280;44826;51.596;5.624;2023-06-22T03:35:40;101686.16;;;17.53;81.33
59043;BME280;44826;51.596;5.624;2023-06-22T03:38:06;101688.88;;;17.52;81.52
59043;BME280;44826;51.596;5.624;2023-06-22T03:40:31;101688.78;;;17.53;81.32
59043;BME280;44826;51.596;5.624;2023-06-22T03:42:56;101684.41;;;17.54;81.31
59043;BME280;44826;51.596;5.624;2023-06-22T03:45:21;101680.09;;;17.51;81.27
59043;BME280;44826;51.596;5.624;2023-06-22T03:47:47;101680.31;;;17.47;81.70
59043;BME280;44826;51.596;5.624;2023-06-22T03:50:12;101677.63;;;17.48;81.76
59043;BME280;44826;51.596;5.624;2023-06-22T03:52:38;101681.19;;;17.47;81.90
59043;BME280;44826;51.596;5.624;2023-06-22T03:55:04;101677.66;;;17.47;81.27
59043;BME280;44826;51.596;5.624;2023-06-22T03:57:30;101674.25;;;17.44;81.30
59043;BME280;44826;51.596;5.624;2023-06-22T03:59:56;101676.03;;;17.44;81.33
59043;BME280;44826;51.596;5.624;2023-06-22T04:02:21;101672.53;;;17.43;81.67
59043;BME280;44826;51.596;5.624;2023-06-22T04:04:47;101672.50;;;17.45;81.28
59043;BME280;44826;51.596;5.624;2023-06-22T04:07:12;101669.84;;;17.45;81.98
59043;BME280;44826;51.596;5.624;2023-06-22T04:09:37;101672.41;;;17.47;81.63
59043;BME280;44826;51.596;5.624;2023-06-22T04:12:03;101671.38;;;17.51;81.41
59043;BME280;44826;51.596;5.624;2023-06-22T04:14:28;101671.38;;;17.51;81.21
59043;BME280;44826;51.596;5.624;2023-06-22T04:16:54;101667.91;;;17.50;81.37
59043;BME280;44826;51.596;5.624;2023-06-22T04:19:19;101668.53;;;17.55;81.47
59043;BME280;44826;51.596;5.624;2023-06-22T04:21:44;101667.56;;;17.58;81.80
59043;BME280;44826;51.596;5.624;2023-06-22T04:24:10;101667.41;;;17.61;81.29
59043;BME280;44826;51.596;5.624;2023-06-22T04:26:36;101664.63;;;17.66;81.00
59043;BME280;44826;51.596;5.624;2023-06-22T04:29:07;101669.69;;;17.70;80.87
59043;BME280;44826;51.596;5.624;2023-06-22T04:31:34;101665.25;;;17.71;80.63
59043;BME280;44826;51.596;5.624;2023-06-22T04:34:02;101664.28;;;17.73;80.95
59043;BME280;44826;51.596;5.624;2023-06-22T04:36:38;101665.09;;;17.75;80.61
59043;BME280;44826;51.596;5.624;2023-06-22T04:39:10;101666.75;;;17.77;80.59
59043;BME280;44826;51.596;5.624;2023-06-22T04:41:40;101658.81;;;17.78;80.67
59043;BME280;44826;51.596;5.624;2023-06-22T04:44:09;101664.81;;;17.82;80.70
59043;BME280;44826;51.596;5.624;2023-06-22T04:46:35;101661.19;;;17.84;80.98
59043;BME280;44826;51.596;5.624;2023-06-22T04:49:06;101669.81;;;17.88;80.95
59043;BME280;44826;51.596;5.624;2023-06-22T04:51:44;101669.69;;;17.91;81.26
59043;BME280;44826;51.596;5.624;2023-06-22T04:54:09;101669.53;;;17.94;81.70
59043;BME280;44826;51.596;5.624;2023-06-22T04:56:35;101667.69;;;17.96;81.63
59043;BME280;44826;51.596;5.624;2023-06-22T04:59:01;101675.44;;;18.01;81.85
59043;BME280;44826;51.596;5.624;2023-06-22T05:01:28;101676.16;;;18.04;81.56
59043;BME280;44826;51.596;5.624;2023-06-22T05:03:53;101672.47;;;18.09;81.86
59043;BME280;44826;51.596;5.624;2023-06-22T05:06:22;101670.47;;;18.14;81.89
59043;BME280;44826;51.596;5.624;2023-06-22T05:08:54;101670.19;;;18.20;82.23
59043;BME280;44826;51.596;5.624;2023-06-22T05:11:24;101666.38;;;18.27;82.62
59043;BME280;44826;51.596;5.624;2023-06-22T05:13:49;101660.81;;;18.33;82.79
59043;BME280;44826;51.596;5.624;2023-06-22T05:16:15;101660.53;;;18.40;82.54
59043;BME280;44826;51.596;5.624;2023-06-22T05:18:40;101668.16;;;18.46;82.98
59043;BME280;44826;51.596;5.624;2023-06-22T05:21:06;101666.94;;;18.53;83.02
59043;BME280;44826;51.596;5.624;2023-06-22T05:23:32;101673.66;;;18.60;83.43
59043;BME280;44826;51.596;5.624;2023-06-22T05:25:57;101669.78;;;18.68;83.40
59043;BME280;44826;51.596;5.624;2023-06-22T05:28:22;101671.22;;;18.75;83.35
59043;BME280;44826;51.596;5.624;2023-06-22T05:30:48;101676.19;;;18.81;82.47
59043;BME280;44826;51.596;5.624;2023-06-22T05:33:13;101675.91;;;18.87;83.29
59043;BME280;44826;51.596;5.624;2023-06-22T05:35:38;101682.75;;;18.91;82.48
59043;BME280;44826;51.596;5.624;2023-06-22T05:38:03;101687.00;;;18.95;83.22
59043;BME280;44826;51.596;5.624;2023-06-22T05:40:29;101678.00;;;19.00;82.53
59043;BME280;44826;51.596;5.624;2023-06-22T05:42:54;101672.56;;;19.03;81.84
59043;BME280;44826;51.596;5.624;2023-06-22T05:45:19;101672.66;;;19.01;81.37
59043;BME280;44826;51.596;5.624;2023-06-22T05:47:44;101672.56;;;19.03;81.32
59043;BME280;44826;51.596;5.624;2023-06-22T05:50:10;101670.81;;;19.03;81.91
59043;BME280;44826;51.596;5.624;2023-06-22T05:52:35;101666.28;;;19.05;81.54
59043;BME280;44826;51.596;5.624;2023-06-22T05:55:02;101666.22;;;19.07;81.14
59043;BME280;44826;51.596;5.624;2023-06-22T05:57:27;101664.38;;;19.09;82.58
59043;BME280;44826;51.596;5.624;2023-06-22T05:59:52;101659.78;;;19.13;82.22
59043;BME280;44826;51.596;5.624;2023-06-22T06:02:19;101655.22;;;19.16;82.08
59043;BME280;44826;51.596;5.624;2023-06-22T06:04:44;101662.06;;;19.20;81.69
59043;BME280;44826;51.596;5.624;2023-06-22T06:07:10;101657.47;;;19.24;81.98
59043;BME280;44826;51.596;5.624;2023-06-22T06:09:36;101663.38;;;19.29;81.55
59043;BME280;44826;51.596;5.624;2023-06-22T06:12:01;101658.75;;;19.34;81.58
59043;BME280;44826;51.596;5.624;2023-06-22T06:14:28;101662.84;;;19.40;81.39
59043;BME280;44826;51.596;5.624;2023-06-22T06:16:53;101658.13;;;19.47;81.02
59043;BME280;44826;51.596;5.624;2023-06-22T06:19:18;101660.38;;;19.54;80.97
59043;BME280;44826;51.596;5.624;2023-06-22T06:21:44;101660.06;;;19.61;80.86
59043;BME280;44826;51.596;5.624;2023-06-22T06:24:09;101661.44;;;19.68;80.24
59043;BME280;44826;51.596;5.624;2023-06-22T06:26:34;101663.78;;;19.74;80.20
59043;BME280;44826;51.596;5.624;2023-06-22T06:29:01;101659.19;;;19.78;80.08
59043;BME280;44826;51.596;5.624;2023-06-22T06:31:27;101655.38;;;19.83;80.00
59043;BME280;44826;51.596;5.624;2023-06-22T06:33:53;101658.50;;;19.92;80.36
59043;BME280;44826;51.596;5.624;2023-06-22T06:36:19;101665.16;;;19.99;80.45
59043;BME280;44826;51.596;5.624;2023-06-22T06:38:44;101669.28;;;20.05;80.19
59043;BME280;44826;51.596;5.624;2023-06-22T06:41:09;101668.94;;;20.11;79.56
59043;BME280;44826;51.596;5.624;2023-06-22T06:43:35;101665.06;;;20.18;80.14
59043;BME280;44826;51.596;5.624;2023-06-22T06:46:00;101664.72;;;20.24;79.40
59043;BME280;44826;51.596;5.624;2023-06-22T06:48:25;101653.00;;;20.30;79.24
59043;BME280;44826;51.596;5.624;2023-06-22T06:50:50;101656.31;;;20.34;78.84
59043;BME280;44826;51.596;5.624;2023-06-22T06:53:16;101647.34;;;20.36;78.50
59043;BME280;44826;51.596;5.624;2023-06-22T06:55:41;101648.06;;;20.40;79.00
59043;BME280;44826;51.596;5.624;2023-06-22T06:58:06;101654.03;;;20.43;78.24
59043;BME280;44826;51.596;5.624;2023-06-22T07:00:33;101650.44;;;20.44;77.75
59043;BME280;44826;51.596;5.624;2023-06-22T07:02:58;101651.22;;;20.46;77.10
59043;BME280;44826;51.596;5.624;2023-06-22T07:05:24;101653.66;;;20.50;77.80
59043;BME280;44826;51.596;5.624;2023-06-22T07:07:49;101653.50;;;20.53;76.90
59043;BME280;44826;51.596;5.624;2023-06-22T07:10:14;101650.78;;;20.54;77.60
59043;BME280;44826;51.596;5.624;2023-06-22T07:12:40;101648.91;;;20.56;78.02
59043;BME280;44826;51.596;5.624;2023-06-22T07:15:09;101642.69;;;20.57;76.84
59043;BME280;44826;51.596;5.624;2023-06-22T07:17:38;101646.94;;;20.60;76.61
59043;BME280;44826;51.596;5.624;2023-06-22T07:20:07;101644.16;;;20.63;77.40
59043;BME280;44826;51.596;5.624;2023-06-22T07:22:37;101643.00;;;20.67;77.23
59043;BME280;44826;51.596;5.624;2023-06-22T07:25:02;101640.19;;;20.70;76.63
59043;BME280;44826;51.596;5.624;2023-06-22T07:27:38;101634.75;;;20.73;76.44
59043;BME280;44826;51.596;5.624;2023-06-22T07:30:08;101631.09;;;20.76;75.88
59043;BME280;44826;51.596;5.624;2023-06-22T07:32:34;101638.88;;;20.79;75.23
59043;BME280;44826;51.596;5.624;2023-06-22T07:34:59;101644.84;;;20.83;74.90
59043;BME280;44826;51.596;5.624;2023-06-22T07:37:24;101633.25;;;20.85;74.47
59043;BME280;44826;51.596;5.624;2023-06-22T07:39:49;101629.56;;;20.88;74.53
59043;BME280;44826;51.596;5.624;2023-06-22T07:42:18;101639.97;;;20.91;74.37
59043;BME280;44826;51.596;5.624;2023-06-22T07:44:44;101638.00;;;20.95;75.07
59043;BME280;44826;51.596;5.624;2023-06-22T07:47:09;101627.25;;;20.98;73.73
59043;BME280;44826;51.596;5.624;2023-06-22T07:49:34;101620.84;;;21.02;74.68
59043;BME280;44826;51.596;5.624;2023-06-22T07:52:00;101623.31;;;21.05;73.75
59043;BME280;44826;51.596;5.624;2023-06-22T07:54:26;101616.91;;;21.09;74.17
59043;BME280;44826;51.596;5.624;2023-06-22T07:56:51;101599.06;;;21.13;72.79
59043;BME280;44826;51.596;5.624;2023-06-22T07:59:18;101595.09;;;21.20;72.47
59043;BME280;44826;51.596;5.624;2023-06-22T08:01:43;101596.28;;;21.30;72.53
59043;BME280;44826;51.596;5.624;2023-06-22T08:04:09;101584.19;;;21.41;72.43
59043;BME280;44826;51.596;5.624;2023-06-22T08:06:34;101578.06;;;21.55;73.29
59043;BME280;44826;51.596;5.624;2023-06-22T08:08:59;101579.16;;;21.66;72.72
59043;BME280;44826;51.596;5.624;2023-06-22T08:11:24;101574.22;;;21.75;71.38
59043;BME280;44826;51.596;5.624;2023-06-22T08:13:50;101564.09;;;21.81;71.49
59043;BME280;44826;51.596;5.624;2023-06-22T08:16:15;101558.53;;;21.86;70.13
59043;BME280;44826;51.596;5.624;2023-06-22T08:18:41;101553.13;;;21.88;68.76
59043;BME280;44826;51.596;5.624;2023-06-22T08:21:06;101546.97;;;21.87;67.74
59043;BME280;44826;51.596;5.624;2023-06-22T08:23:31;101546.13;;;21.87;67.82
59043;BME280;44826;51.596;5.624;2023-06-22T08:25:57;101542.53;;;21.88;67.44
59043;BME280;44826;51.596;5.624;2023-06-22T08:28:22;101545.19;;;21.88;66.62
59043;BME280;44826;51.596;5.624;2023-06-22T08:30:47;101545.06;;;21.89;67.67
59043;BME280;44826;51.596;5.624;2023-06-22T08:33:13;101548.41;;;21.93;68.41
59043;BME280;44826;51.596;5.624;2023-06-22T08:35:38;101545.66;;;21.94;65.99
59043;BME280;44826;51.596;5.624;2023-06-22T08:38:03;101547.47;;;21.94;66.49
59043;BME280;44826;51.596;5.624;2023-06-22T08:40:29;101545.47;;;21.97;66.43
59043;BME280;44826;51.596;5.624;2023-06-22T08:42:54;101540.91;;;22.00;66.91
59043;BME280;44826;51.596;5.624;2023-06-22T08:45:20;101537.84;;;22.06;67.39
59043;BME280;44826;51.596;5.624;2023-06-22T08:47:45;101546.38;;;22.11;67.34
59043;BME280;44826;51.596;5.624;2023-06-22T08:50:11;101543.53;;;22.14;66.71
59043;BME280;44826;51.596;5.624;2023-06-22T08:52:38;101546.00;;;22.17;66.51
59043;BME280;44826;51.596;5.624;2023-06-22T08:55:06;101531.69;;;22.20;66.14
59043;BME280;44826;51.596;5.624;2023-06-22T08:57:31;101536.03;;;22.21;65.91
59043;BME280;44826;51.596;5.624;2023-06-22T08:59:57;101522.16;;;22.17;64.85
59043;BME280;44826;51.596;5.624;2023-06-22T09:02:24;101529.34;;;22.15;64.89
59043;BME280;44826;51.596;5.624;2023-06-22T09:04:49;101531.22;;;22.13;65.53
59043;BME280;44826;51.596;5.624;2023-06-22T09:07:21;101522.53;;;22.11;64.79
59043;BME280;44826;51.596;5.624;2023-06-22T09:09:48;101535.03;;;22.09;65.25
59043;BME280;44826;51.596;5.624;2023-06-22T09:12:14;101526.31;;;22.07;64.83
59043;BME280;44826;51.596;5.624;2023-06-22T09:14:39;101530.84;;;22.05;65.25
59043;BME280;44826;51.596;5.624;2023-06-22T09:17:04;101531.81;;;22.04;64.89
59043;BME280;44826;51.596;5.624;2023-06-22T09:19:30;101539.03;;;22.02;64.36
59043;BME280;44826;51.596;5.624;2023-06-22T09:21:55;101533.81;;;22.00;64.33
59043;BME280;44826;51.596;5.624;2023-06-22T09:24:20;101528.63;;;21.98;64.47
59043;BME280;44826;51.596;5.624;2023-06-22T09:26:46;101523.31;;;21.98;64.67
59043;BME280;44826;51.596;5.624;2023-06-22T09:29:11;101518.97;;;21.97;64.94
59043;BME280;44826;51.596;5.624;2023-06-22T09:31:36;101518.00;;;21.98;65.03
59043;BME280;44826;51.596;5.624;2023-06-22T09:34:01;101519.72;;;22.00;65.51
59043;BME280;44826;51.596;5.624;2023-06-22T09:36:27;101515.19;;;22.02;65.50
59043;BME280;44826;51.596;5.624;2023-06-22T09:38:52;101515.91;;;22.04;65.19
59043;BME280;44826;51.596;5.624;2023-06-22T09:41:21;101520.38;;;22.03;65.29
59043;BME280;44826;51.596;5.624;2023-06-22T09:43:46;101508.06;;;22.02;65.22
59043;BME280;44826;51.596;5.624;2023-06-22T09:46:15;101514.41;;;22.00;64.72
59043;BME280;44826;51.596;5.624;2023-06-22T09:48:40;101511.00;;;21.97;64.38
59043;BME280;44826;51.596;5.624;2023-06-22T09:51:05;101518.97;;;21.97;64.87
59043;BME280;44826;51.596;5.624;2023-06-22T09:53:31;101518.31;;;21.94;64.37
59043;BME280;44826;51.596;5.624;2023-06-22T09:55:56;101512.16;;;21.93;65.20
59043;BME280;44826;51.596;5.624;2023-06-22T09:58:22;101507.03;;;21.90;65.35
59043;BME280;44826;51.596;5.624;2023-06-22T10:00:47;101509.69;;;21.90;65.73
59043;BME280;44826;51.596;5.624;2023-06-22T10:03:12;101506.38;;;21.87;65.81
59043;BME280;44826;51.596;5.624;2023-06-22T10:05:38;101509.88;;;21.87;65.61
59043;BME280;44826;51.596;5.624;2023-06-22T10:08:03;101505.56;;;21.86;65.28
59043;BME280;44826;51.596;5.624;2023-06-22T10:10:28;101513.50;;;21.86;65.47
59043;BME280;44826;51.596;5.624;2023-06-22T10:13:01;101512.53;;;21.87;65.18
59043;BME280;44826;51.596;5.624;2023-06-22T10:15:27;101504.56;;;21.87;65.48
59043;BME280;44826;51.596;5.624;2023-06-22T10:17:53;101499.19;;;21.89;65.54
59043;BME280;44826;51.596;5.624;2023-06-22T10:20:18;101497.31;;;21.91;65.25
59043;BME280;44826;51.596;5.624;2023-06-22T10:22:44;101495.31;;;21.94;65.57
59043;BME280;44826;51.596;5.624;2023-06-22T10:25:11;101486.22;;;21.98;65.90
59043;BME280;44826;51.596;5.624;2023-06-22T10:27:37;101486.97;;;22.01;65.56
59043;BME280;44826;51.596;5.624;2023-06-22T10:30:06;101476.28;;;22.02;65.95
59043;BME280;44826;51.596;5.624;2023-06-22T10:32:31;101478.81;;;22.04;66.04
59043;BME280;44826;51.596;5.624;2023-06-22T10:34:57;101488.38;;;22.06;65.63
59043;BME280;44826;51.596;5.624;2023-06-22T10:37:22;101487.44;;;22.07;66.15
59043;BME280;44826;51.596;5.624;2023-06-22T10:39:47;101492.63;;;22.09;66.39
59043;BME280;44826;51.596;5.624;2023-06-22T10:42:13;101492.63;;;22.09;65.81
59043;BME280;44826;51.596;5.624;2023-06-22T10:44:38;101495.28;;;22.09;65.48
59043;BME280;44826;51.596;5.624;2023-06-22T10:47:06;101501.53;;;22.08;65.73
59043;BME280;44826;51.596;5.624;2023-06-22T10:49:31;101499.94;;;22.05;65.98
59043;BME280;44826;51.596;5.624;2023-06-22T10:51:57;101500.00;;;22.04;65.72
59043;BME280;44826;51.596;5.624;2023-06-22T10:54:22;101506.38;;;22.01;65.45
59043;BME280;44826;51.596;5.624;2023-06-22T10:56:47;101508.25;;;21.99;65.51
59043;BME280;44826;51.596;5.624;2023-06-22T10:59:13;101510.06;;;21.98;65.96
59043;BME280;44826;51.596;5.624;2023-06-22T11:01:38;101519.91;;;21.96;66.38
59043;BME280;44826;51.596;5.624;2023-06-22T11:04:03;101526.25;;;21.94;66.00
59043;BME280;44826;51.596;5.624;2023-06-22T11:06:29;101528.03;;;21.93;66.26
59043;BME280;44826;51.596;5.624;2023-06-22T11:08:55;101533.44;;;21.92;66.60
59043;BME280;44826;51.596;5.624;2023-06-22T11:11:20;101524.75;;;21.90;67.03
59043;BME280;44826;51.596;5.624;2023-06-22T11:13:45;101533.53;;;21.90;69.11
59043;BME280;44826;51.596;5.624;2023-06-22T11:16:10;101543.19;;;21.91;71.37
59043;BME280;44826;51.596;5.624;2023-06-22T11:18:36;101554.84;;;21.89;72.50
59043;BME280;44826;51.596;5.624;2023-06-22T11:21:01;101555.88;;;21.86;74.63
59043;BME280;44826;51.596;5.624;2023-06-22T11:23:27;101564.38;;;21.77;75.79
59043;BME280;44826;51.596;5.624;2023-06-22T11:25:53;101564.03;;;21.68;77.70
59043;BME280;44826;51.596;5.624;2023-06-22T11:28:19;101563.53;;;21.62;79.65
59043;BME280;44826;51.596;5.624;2023-06-22T11:30:44;101565.66;;;21.55;81.11
59043;BME280;44826;51.596;5.624;2023-06-22T11:33:09;101566.31;;;21.44;80.94
59043;BME280;44826;51.596;5.624;2023-06-22T11:35:35;101563.41;;;21.34;81.93
59043;BME280;44826;51.596;5.624;2023-06-22T11:38:00;101558.75;;;21.23;80.73
59043;BME280;44826;51.596;5.624;2023-06-22T11:40:25;101553.97;;;21.14;82.29
59043;BME280;44826;51.596;5.624;2023-06-22T11:42:51;101554.53;;;21.05;83.83
59043;BME280;44826;51.596;5.624;2023-06-22T11:45:16;101557.81;;;20.94;84.81
59043;BME280;44826;51.596;5.624;2023-06-22T11:47:43;101566.19;;;20.86;86.17
59043;BME280;44826;51.596;5.624;2023-06-22T11:50:08;101570.09;;;20.79;85.94
59043;BME280;44826;51.596;5.624;2023-06-22T11:52:33;101555.28;;;20.76;85.65
59043;BME280;44826;51.596;5.624;2023-06-22T11:55:01;101545.78;;;20.72;86.78
59043;BME280;44826;51.596;5.624;2023-06-22T11:57:28;101545.13;;;20.69;86.52
59043;BME280;44826;51.596;5.624;2023-06-22T11:59:53;101537.47;;;20.64;84.76
59043;BME280;44826;51.596;5.624;2023-06-22T12:02:19;101519.47;;;20.55;84.60
59043;BME280;44826;51.596;5.624;2023-06-22T12:04:44;101494.25;;;20.49;87.04
59043;BME280;44826;51.596;5.624;2023-06-22T12:07:09;101483.06;;;20.44;88.44
59043;BME280;44826;51.596;5.624;2023-06-22T12:09:34;101477.28;;;20.37;88.95
59043;BME280;44826;51.596;5.624;2023-06-22T12:12:00;101478.50;;;20.31;89.47
59043;BME280;44826;51.596;5.624;2023-06-22T12:14:25;101475.19;;;20.28;90.07
59043;BME280;44826;51.596;5.624;2023-06-22T12:16:50;101472.09;;;20.20;90.82
59043;BME280;44826;51.596;5.624;2023-06-22T12:19:15;101464.63;;;20.12;90.73
59043;BME280;44826;51.596;5.624;2023-06-22T12:21:41;101456.03;;;20.08;90.18
59043;BME280;44826;51.596;5.624;2023-06-22T12:24:06;101451.00;;;20.04;90.45
59043;BME280;44826;51.596;5.624;2023-06-22T12:26:31;101454.75;;;19.99;91.26
59043;BME280;44826;51.596;5.624;2023-06-22T12:28:57;101454.06;;;19.96;90.25
59043;BME280;44826;51.596;5.624;2023-06-22T12:31:22;101445.72;;;19.88;90.13
59043;BME280;44826;51.596;5.624;2023-06-22T12:33:47;101446.22;;;19.78;89.87
59043;BME280;44826;51.596;5.624;2023-06-22T12:36:13;101449.06;;;19.74;90.75
59043;BME280;44826;51.596;5.624;2023-06-22T12:38:38;101449.34;;;19.69;91.27
59043;BME280;44826;51.596;5.624;2023-06-22T12:41:03;101448.56;;;19.67;90.63
59043;BME280;44826;51.596;5.624;2023-06-22T12:43:28;101449.06;;;19.58;89.19
59043;BME280;44826;51.596;5.624;2023-06-22T12:45:54;101445.06;;;19.50;91.04
59043;BME280;44826;51.596;5.624;2023-06-22T12:48:19;101450.69;;;19.44;92.68